This is the latest recevied weather packets stored in our database for station/object WI5ARD. If no packets are shown the sender has not sent any weather packets the latest 10 day(s).
| Time | Temp. | Humidity | Pressure | Rain* | Wind** | Luminosity | Snow |
|---|---|---|---|---|---|---|---|
| 1778016023 | 26.67° C | 66% | 1013.3 hPa | 0 mm | - | 206 W/m² | - |
| 1778012720 | 27.22° C | 62% | 1013.5 hPa | 0 mm | - | 417 W/m² | - |
| 1778010622 | 27.22° C | 65% | 1013.8 hPa | 0 mm | - | 926 W/m² | - |
| 1778010337 | 27.22° C | 65% | 1013.7 hPa | 0 mm | - | 914 W/m² | - |
| 1778005843 | 27.22° C | 65% | 1014.6 hPa | 0 mm | - | 798 W/m² | - |
| 1778005219 | 26.67° C | 66% | 1014.6 hPa | 0 mm | - | 1023 W/m² | - |
| 1778004623 | 26.67° C | 66% | 1014.7 hPa | 0 mm | - | 1028 W/m² | - |
| 1778004037 | 26.67° C | 67% | 1014.6 hPa | 0 mm | - | 1009 W/m² | - |
| 1778003419 | 26.11° C | 66% | 1014.7 hPa | 0 mm | - | 715 W/m² | - |
| 1778003136 | 26.67° C | 66% | 1014.7 hPa | 0 mm | - | 916 W/m² | - |
| 1778002822 | 26.11° C | 68% | 1014.6 hPa | 0 mm | - | 1129 W/m² | - |
| 1778002520 | 26.11° C | 69% | 1014.7 hPa | 0 mm | - | 1025 W/m² | - |
| 1778000722 | 25.56° C | 68% | 1014.9 hPa | 0 mm | - | 1025 W/m² | - |
| 1777999538 | 25.56° C | 70% | 1015 hPa | 0 mm | - | 974 W/m² | - |
| 1777998635 | 25° C | 72% | 1014.9 hPa | 0 mm | - | 914 W/m² | - |
| 1777997419 | 25° C | 74% | 1015 hPa | 0 mm | - | 824 W/m² | - |
| 1777996221 | 24.44° C | 74% | 1015 hPa | 0 mm | - | 642 W/m² | - |
| 1777993519 | 23.33° C | 77% | 1015.4 hPa | 0 mm | - | 847 W/m² | - |
| 1777992346 | 22.78° C | 79% | 1015.3 hPa | 0 mm | - | 482 W/m² | - |
| 1777991122 | 22.22° C | 79% | 1015.4 hPa | 0 mm | - | 545 W/m² | - |
| 1777987519 | 18.33° C | 92% | 1015 hPa | 0 mm | - | 338 W/m² | - |
| 1777985720 | 16.67° C | 94% | 1015 hPa | 0 mm | - | 135 W/m² | - |
| 1777985421 | 16.67° C | 94% | 1015 hPa | 0 mm | - | 135 W/m² | - |
| 1777985143 | 16.67° C | 94% | 1014.9 hPa | 0 mm | - | 111 W/m² | - |
| 1777984822 | 16.11° C | 94% | 1014.8 hPa | 0 mm | - | 98 W/m² | - |
* Rain latest hour (hover to see other rain measurements)
** Current wind speed in m/s (hover to see current wind gust speed)